createdAt,value
2023-06-30T00:00:13.146Z,0.02
2023-06-30T00:05:13.378Z,0.03
2023-06-30T00:10:11.876Z,0.03
2023-06-30T00:15:11.586Z,0.03
2023-06-30T00:20:11.596Z,0.03
2023-06-30T00:25:12.853Z,0.03
2023-06-30T00:30:11.168Z,0.01
2023-06-30T00:35:10.861Z,0.03
2023-06-30T00:40:11.418Z,0.01
2023-06-30T00:45:11.080Z,0.03
2023-06-30T00:50:11.283Z,0.03
2023-06-30T00:55:08.656Z,0.03
2023-06-30T00:59:50.102Z,0.01
2023-06-30T01:04:50.710Z,0.03
2023-06-30T01:09:50.456Z,0.02
2023-06-30T01:14:50.263Z,0.03
2023-06-30T01:19:51.085Z,0
2023-06-30T01:24:50.534Z,0.03
2023-06-30T01:29:51.198Z,0.03
2023-06-30T01:34:48.423Z,0.03
2023-06-30T01:39:47.484Z,0.01
2023-06-30T01:44:47.286Z,0.03
2023-06-30T01:49:47.812Z,0.01
2023-06-30T01:54:46.937Z,0.03
2023-06-30T01:59:47.346Z,0.03
2023-06-30T02:04:48.386Z,0
2023-06-30T02:09:59.178Z,0.01
2023-06-30T02:14:48.597Z,0
2023-06-30T02:19:45.053Z,0.03
2023-06-30T02:24:45.080Z,0.01
2023-06-30T02:29:45.196Z,0
2023-06-30T02:34:45.680Z,0.03
2023-06-30T02:39:45.533Z,0.01
2023-06-30T02:44:45.866Z,0.03
2023-06-30T02:49:45.398Z,0.01
2023-06-30T02:54:44.932Z,0.02
2023-06-30T02:59:42.507Z,0.04
2023-06-30T03:02:22.539Z,0.03
2023-06-30T03:06:15.580Z,0
2023-06-30T03:11:15.935Z,0.04
2023-06-30T03:16:16.291Z,0.03
2023-06-30T03:21:16.854Z,0.04
2023-06-30T03:26:17.344Z,0.06
2023-06-30T03:31:14.910Z,0.09
2023-06-30T03:36:14.258Z,0.14
2023-06-30T03:41:13.935Z,0.23
2023-06-30T03:46:13.676Z,0.31
2023-06-30T03:51:14.014Z,0.35
2023-06-30T03:56:14.317Z,0.35
2023-06-30T04:00:35.753Z,0.34
2023-06-30T04:05:35.013Z,0.29
2023-06-30T04:10:35.240Z,0.34
2023-06-30T04:15:35.673Z,0.31
2023-06-30T04:20:34.805Z,0.43
2023-06-30T04:25:34.965Z,0.57
2023-06-30T04:30:35.619Z,0.8
2023-06-30T04:35:36.050Z,0.9
2023-06-30T04:40:33.155Z,1.01
2023-06-30T04:45:34.679Z,1.08
2023-06-30T04:50:32.462Z,1.26
2023-06-30T04:55:32.324Z,1.42
2023-06-30T05:00:11.858Z,1.44
2023-06-30T05:05:11.331Z,1.78
2023-06-30T05:10:11.913Z,2.16
2023-06-30T05:15:11.379Z,2.66
2023-06-30T05:20:12.459Z,3.24
2023-06-30T05:25:08.806Z,3.47
2023-06-30T05:30:08.788Z,3.87
2023-06-30T05:35:08.571Z,4.47
2023-06-30T05:40:08.864Z,5.1
2023-06-30T05:45:08.640Z,5.23
2023-06-30T05:50:08.692Z,5.21
2023-06-30T05:55:08.344Z,5.66
2023-06-30T05:59:51.668Z,6.62
2023-06-30T06:04:51.616Z,6.95
2023-06-30T06:09:50.141Z,6.8
2023-06-30T06:14:49.580Z,6.58
2023-06-30T06:19:51.462Z,5.8
2023-06-30T06:24:49.926Z,6.43
2023-06-30T06:29:50.136Z,6.65
2023-06-30T06:34:49.279Z,5.65
2023-06-30T06:39:50.741Z,5.21
2023-06-30T06:44:48.063Z,5.13
2023-06-30T06:49:48.247Z,4.88
2023-06-30T06:54:48.133Z,5.35
2023-06-30T06:59:48.580Z,6.25
2023-06-30T07:04:47.983Z,7.61
2023-06-30T07:09:47.692Z,8.23
2023-06-30T07:14:50.088Z,8.69
2023-06-30T07:19:47.703Z,9.03
2023-06-30T07:24:58.642Z,8.91
2023-06-30T07:29:45.455Z,8.28
2023-06-30T07:34:44.874Z,7.89
2023-06-30T07:39:44.910Z,8.38
2023-06-30T07:44:44.764Z,8.43
2023-06-30T07:49:45.112Z,8.49
2023-06-30T07:54:45.087Z,8.92
2023-06-30T07:59:44.980Z,10.28
2023-06-30T08:01:50.814Z,10.55
2023-06-30T08:06:19.023Z,10.4
2023-06-30T08:11:09.954Z,8.15
2023-06-30T08:16:07.382Z,7.88
2023-06-30T08:21:07.885Z,8.36
2023-06-30T08:26:07.199Z,6.78
2023-06-30T08:31:11.323Z,6.03
2023-06-30T08:36:07.942Z,7.64
2023-06-30T08:41:07.017Z,7.67
2023-06-30T08:46:16.418Z,8.6
2023-06-30T08:51:17.424Z,9.41
2023-06-30T08:56:16.954Z,10.71
2023-06-30T09:00:37.838Z,11.91
2023-06-30T09:05:37.805Z,12.81
2023-06-30T09:10:38.417Z,12.89
2023-06-30T09:15:39.116Z,11.24
2023-06-30T09:20:37.912Z,10.03
2023-06-30T09:25:35.314Z,10.18
2023-06-30T09:30:34.977Z,9.91
2023-06-30T09:35:34.985Z,10.5
2023-06-30T09:40:34.626Z,11.98
2023-06-30T09:45:34.414Z,13.06
2023-06-30T09:50:34.766Z,12.51
2023-06-30T09:55:37.818Z,14.33
2023-06-30T10:00:35.154Z,18.28
2023-06-30T10:05:09.636Z,17.32
2023-06-30T10:10:09.128Z,19
2023-06-30T10:15:06.827Z,18.9
2023-06-30T10:20:07.361Z,21.79
2023-06-30T10:25:06.784Z,31.5
2023-06-30T10:30:06.877Z,27.41
2023-06-30T10:35:07.663Z,25.84
2023-06-30T10:40:07.345Z,26.43
2023-06-30T10:45:08.521Z,27.07
2023-06-30T10:50:15.690Z,25.63
2023-06-30T10:55:16.245Z,27.57
2023-06-30T10:59:49.005Z,28.39
2023-06-30T11:04:50.887Z,29.81
2023-06-30T11:09:48.984Z,28.88
2023-06-30T11:14:48.123Z,31.37
2023-06-30T11:19:49.330Z,28.41
2023-06-30T11:24:46.187Z,21.78
2023-06-30T11:29:45.616Z,18.87
2023-06-30T11:34:45.540Z,11.54
2023-06-30T11:39:45.404Z,4.54
2023-06-30T11:44:45.419Z,3.65
2023-06-30T11:49:44.757Z,3.28
2023-06-30T11:54:45.196Z,2.16
2023-06-30T11:59:44.855Z,1.36
2023-06-30T12:04:45.885Z,1.86
2023-06-30T12:09:41.083Z,2.64
2023-06-30T12:14:41.729Z,2.13
2023-06-30T12:19:40.267Z,2.49
2023-06-30T12:24:40.005Z,2.77
2023-06-30T12:29:39.831Z,2.53
2023-06-30T12:34:39.952Z,3.58
2023-06-30T12:39:39.543Z,4.51
2023-06-30T12:44:39.778Z,5.67
2023-06-30T12:49:36.697Z,5.92
2023-06-30T12:54:36.237Z,5.85
2023-06-30T12:59:36.337Z,8.26
2023-06-30T13:01:42.470Z,9.28
2023-06-30T13:05:58.923Z,12.33
2023-06-30T13:11:01.136Z,10.18
2023-06-30T13:15:58.771Z,13.97
2023-06-30T13:20:58.788Z,17.4
2023-06-30T13:25:57.347Z,17.81
2023-06-30T13:30:59.846Z,32.74
2023-06-30T13:35:57.486Z,20.31
2023-06-30T13:40:57.988Z,17.49
2023-06-30T13:45:58.274Z,16.4
2023-06-30T13:50:59.198Z,16.58
2023-06-30T13:56:00.715Z,22.43
2023-06-30T14:00:36.778Z,37.58
2023-06-30T14:05:19.732Z,33.85
2023-06-30T14:10:18.889Z,32.68
2023-06-30T14:15:20.768Z,24.77
2023-06-30T14:20:19.404Z,21.66
2023-06-30T14:25:19.096Z,25.18
2023-06-30T14:30:20.201Z,26.58
2023-06-30T14:35:19.199Z,28.24
2023-06-30T14:40:42.300Z,30.45
2023-06-30T14:45:17.997Z,30.08
2023-06-30T14:50:17.224Z,27.17
2023-06-30T14:55:16.769Z,26.2
2023-06-30T15:00:17.532Z,27.33
2023-06-30T15:05:07.318Z,26.1
2023-06-30T15:10:06.646Z,26.27
2023-06-30T15:15:07.435Z,25.71
2023-06-30T15:20:07.454Z,21.6
2023-06-30T15:25:08.479Z,14.56
2023-06-30T15:30:14.984Z,13.9
2023-06-30T15:35:14.927Z,13.38
2023-06-30T15:40:15.309Z,10.88
2023-06-30T15:45:15.828Z,9.01
2023-06-30T15:50:15.908Z,5.43
2023-06-30T15:55:18.341Z,5.74
2023-06-30T16:00:14.064Z,3.48
2023-06-30T16:05:15.017Z,3.54
2023-06-30T16:10:14.300Z,2.14
2023-06-30T16:15:14.750Z,5.93
2023-06-30T16:20:15.125Z,7.39
2023-06-30T16:25:17.162Z,4.78
2023-06-30T16:30:13.885Z,5.15
2023-06-30T16:35:14.557Z,6.3
2023-06-30T16:40:13.762Z,4.68
2023-06-30T16:45:14.079Z,3.32
2023-06-30T16:50:13.976Z,3.03
2023-06-30T16:55:14.170Z,2.33
2023-06-30T17:00:12.190Z,2.98
2023-06-30T17:04:58.062Z,3.83
2023-06-30T17:09:56.972Z,4.97
2023-06-30T17:14:56.771Z,4.32
2023-06-30T17:19:57.205Z,3.78
2023-06-30T17:25:04.098Z,3.35
2023-06-30T17:29:57.332Z,2.84
2023-06-30T17:34:56.786Z,2.74
2023-06-30T17:39:58.250Z,2.55
2023-06-30T17:44:54.678Z,2.75
2023-06-30T17:49:54.238Z,2.25
2023-06-30T17:54:54.260Z,1.71
2023-06-30T17:59:54.521Z,1.28
2023-06-30T18:04:54.950Z,1.04
2023-06-30T18:09:54.699Z,0.89
2023-06-30T18:15:09.487Z,0.99
2023-06-30T18:19:53.920Z,1.23
2023-06-30T18:24:52.697Z,1.04
2023-06-30T18:29:53.060Z,1.09
2023-06-30T18:34:52.654Z,1.13
2023-06-30T18:39:52.766Z,1.18
2023-06-30T18:44:52.667Z,1.12
2023-06-30T18:49:52.479Z,0.92
2023-06-30T18:54:52.563Z,0.72
2023-06-30T18:59:52.520Z,0.64
2023-06-30T19:04:53.425Z,0.62
2023-06-30T19:09:50.131Z,0.48
2023-06-30T19:14:49.325Z,0.32
2023-06-30T19:19:50.337Z,0.26
2023-06-30T19:24:49.009Z,0.22
2023-06-30T19:29:49.068Z,0.22
2023-06-30T19:34:49.358Z,0.15
2023-06-30T19:39:48.834Z,0.11
2023-06-30T19:44:48.783Z,0.06
2023-06-30T19:49:46.226Z,0.02
2023-06-30T19:54:45.279Z,0.03
2023-06-30T19:59:45.313Z,0.01
2023-06-30T20:04:45.619Z,0
2023-06-30T20:09:45.056Z,0.03
2023-06-30T20:14:44.783Z,0.03
2023-06-30T20:19:45.600Z,0
2023-06-30T20:24:45.184Z,0.03
2023-06-30T20:29:46.376Z,0.02
2023-06-30T20:34:44.004Z,0.03
2023-06-30T20:39:42.410Z,0.01
2023-06-30T20:44:42.129Z,0.04
2023-06-30T20:49:42.428Z,0.01
2023-06-30T20:54:42.033Z,0.01
2023-06-30T20:59:43.478Z,0.03
2023-06-30T21:01:50.491Z,0.03
2023-06-30T21:06:08.304Z,0.03
2023-06-30T21:11:14.946Z,0.03
2023-06-30T21:16:16.182Z,0
2023-06-30T21:21:15.886Z,0.01
2023-06-30T21:26:16.469Z,0.01
2023-06-30T21:31:17.085Z,0.01
2023-06-30T21:36:16.431Z,0.04
2023-06-30T21:41:14.763Z,0.03
2023-06-30T21:46:14.925Z,0.03
2023-06-30T21:51:29.625Z,0
2023-06-30T21:56:14.839Z,0.03
2023-06-30T22:00:38.052Z,0.03
2023-06-30T22:05:37.448Z,0.01
2023-06-30T22:10:37.401Z,0.03
2023-06-30T22:15:38.259Z,0.02
2023-06-30T22:20:36.773Z,0.03
2023-06-30T22:25:33.886Z,0.01
2023-06-30T22:30:34.097Z,0.02
2023-06-30T22:35:33.825Z,0.03
2023-06-30T22:40:33.922Z,0.03
2023-06-30T22:45:34.349Z,0.01
2023-06-30T22:50:33.964Z,0.04
2023-06-30T22:55:34.999Z,0.02
2023-06-30T23:00:09.561Z,0.02
2023-06-30T23:05:09.506Z,0.01
2023-06-30T23:10:09.288Z,0.01
2023-06-30T23:15:09.340Z,0
2023-06-30T23:20:09.085Z,0.01
2023-06-30T23:25:09.194Z,0.01
2023-06-30T23:30:08.684Z,0
2023-06-30T23:35:08.339Z,0
2023-06-30T23:40:07.011Z,0.01
2023-06-30T23:45:17.049Z,0.03
2023-06-30T23:50:16.601Z,0.02
2023-06-30T23:55:16.700Z,0.03
2023-06-30T23:59:49.959Z,0.03
